Time;durP1;ratioP1;P1;durP2;ratioP2;P2;SDS_P1;SDS_P2;PMS_P1;PMS_P2;Temp;Humidity;BMP_temperature;BMP_pressure;BME280_temperature;BME280_humidity;BME280_pressure;Samples;Min_cycle;Max_cycle;Signal;HPM_P1;HPM_P2
2023/08/17 00:00:32;;;;;;;1.90;0.90;;;;;;;18.76;100.00;99998.13;4823897;29;20034;-90
2023/08/17 00:02:58;;;;;;;0.75;0.75;;;;;;;18.82;100.00;100027.81;4833842;29;20050;-91
2023/08/17 00:05:24;;;;;;;0.47;0.47;;;;;;;18.75;100.00;100021.88;4835110;29;20526;-90
2023/08/17 00:07:49;;;;;;;1.33;1.23;;;;;;;18.77;100.00;100019.31;4821064;29;20110;-92
2023/08/17 00:10:15;;;;;;;1.35;1.25;;;;;;;18.75;100.00;100041.53;4839083;29;20137;-91
2023/08/17 00:12:40;;;;;;;1.23;1.13;;;;;;;18.78;100.00;100040.53;4837526;29;20162;-90
2023/08/17 00:15:06;;;;;;;4.00;1.70;;;;;;;18.74;100.00;100037.19;4824345;29;20061;-94
2023/08/17 00:17:32;;;;;;;2.65;0.68;;;;;;;18.58;100.00;100011.22;4851891;29;20052;-95
2023/08/17 00:19:58;;;;;;;2.92;1.80;;;;;;;18.59;100.00;100012.75;4820637;29;20054;-95
2023/08/17 00:22:23;;;;;;;0.77;0.77;;;;;;;18.50;100.00;100000.84;4790414;29;20057;-94
2023/08/17 00:24:49;;;;;;;2.00;1.52;;;;;;;18.70;100.00;100033.81;4814597;29;20048;-94
2023/08/17 00:27:14;;;;;;;1.10;0.98;;;;;;;18.61;100.00;100021.44;4805085;29;20054;-93
2023/08/17 00:29:42;;;;;;;1.95;1.85;;;;;;;18.64;100.00;100031.69;4807936;29;20042;-95
2023/08/17 00:32:08;;;;;;;1.05;1.02;;;;;;;18.60;100.00;100014.28;4792344;29;20053;-93
2023/08/17 00:34:35;;;;;;;2.58;1.73;;;;;;;18.68;100.00;100019.50;4806474;29;20038;-94
2023/08/17 00:37:01;;;;;;;1.88;0.95;;;;;;;18.51;100.00;100011.59;4789370;29;20084;-93
2023/08/17 00:39:26;;;;;;;0.60;0.60;;;;;;;18.41;100.00;100013.00;4815911;29;20088;-95
2023/08/17 00:41:52;;;;;;;0.50;0.50;;;;;;;18.50;100.00;100043.75;4792050;29;20497;-95
2023/08/17 00:44:18;;;;;;;1.55;1.25;;;;;;;18.38;100.00;100024.44;4806760;29;20055;-94
2023/08/17 00:46:44;;;;;;;5.82;1.40;;;;;;;18.39;100.00;100046.44;4795381;29;20110;-94
2023/08/17 00:49:10;;;;;;;1.17;0.95;;;;;;;18.17;100.00;100029.28;4790235;29;20050;-95
2023/08/17 00:51:35;;;;;;;1.08;1.05;;;;;;;18.17;100.00;100049.69;4794974;29;20074;-95
2023/08/17 00:54:02;;;;;;;1.40;1.20;;;;;;;18.13;100.00;100039.94;4793337;29;20073;-91
2023/08/17 00:56:28;;;;;;;0.95;0.80;;;;;;;18.11;100.00;100057.28;4824863;29;20129;-90
2023/08/17 00:58:54;;;;;;;1.25;1.15;;;;;;;18.01;100.00;100036.19;4804254;29;20391;-91
2023/08/17 01:03:57;;;;;;;1.02;0.77;;;;;;;18.05;100.00;100036.00;4846731;23;20404;-87
2023/08/17 01:06:23;;;;;;;1.15;1.02;;;;;;;18.00;100.00;100031.84;4806761;29;20502;-88
2023/08/17 01:08:49;;;;;;;2.65;2.05;;;;;;;18.03;100.00;100039.31;4810204;29;20164;-87
2023/08/17 01:11:25;;;;;;;0.35;0.35;;;;;;;18.07;100.00;100047.50;4794993;29;20055;-87
2023/08/17 01:14:27;;;;;;;0.77;0.77;;;;;;;18.11;100.00;100048.09;4808947;29;20043;-87
2023/08/17 01:17:01;;;;;;;1.02;1.00;;;;;;;18.13;100.00;100048.34;4817777;29;20133;-87
2023/08/17 01:19:27;;;;;;;1.70;1.60;;;;;;;18.07;100.00;100055.94;4786959;29;20046;-87
2023/08/17 01:21:58;;;;;;;1.75;0.93;;;;;;;18.07;100.00;100048.28;4820182;29;20064;-87
2023/08/17 01:24:23;;;;;;;1.05;1.02;;;;;;;18.05;100.00;100047.22;4805072;29;20046;-87
2023/08/17 01:26:49;;;;;;;0.63;0.57;;;;;;;18.07;100.00;100039.88;4822843;29;20447;-87
2023/08/17 01:29:15;;;;;;;2.33;1.33;;;;;;;18.04;100.00;100037.25;4820225;29;20064;-88
2023/08/17 01:31:49;;;;;;;1.38;1.08;;;;;;;18.03;100.00;100049.75;4784976;29;20137;-87
2023/08/17 01:34:18;;;;;;;0.52;0.52;;;;;;;18.05;100.00;100052.81;4809739;29;20172;-87
2023/08/17 01:36:47;;;;;;;0.93;0.73;;;;;;;18.05;100.00;100048.00;4804805;29;20053;-87
2023/08/17 01:39:13;;;;;;;0.98;0.77;;;;;;;18.02;100.00;100056.63;4802529;29;20133;-87
2023/08/17 01:41:39;;;;;;;1.13;1.02;;;;;;;17.92;100.00;100049.56;4820216;29;20045;-87
2023/08/17 01:44:05;;;;;;;0.88;0.80;;;;;;;17.88;100.00;100052.56;4799605;29;20111;-86
2023/08/17 01:46:32;;;;;;;1.83;1.30;;;;;;;17.88;100.00;100065.81;4819110;29;20057;-87
2023/08/17 01:48:58;;;;;;;1.67;0.95;;;;;;;17.86;100.00;100045.91;4819789;29;20050;-87
2023/08/17 01:51:24;;;;;;;1.27;1.17;;;;;;;17.83;100.00;100041.28;4821391;29;20110;-87
2023/08/17 01:53:49;;;;;;;1.10;1.05;;;;;;;17.87;100.00;100044.66;4816870;29;21370;-87
2023/08/17 01:56:15;;;;;;;2.33;1.52;;;;;;;17.79;100.00;100041.50;4813053;29;20083;-87
2023/08/17 01:58:40;;;;;;;0.63;0.63;;;;;;;17.78;100.00;100047.56;4818833;29;20893;-87
2023/08/17 02:01:06;;;;;;;1.45;1.20;;;;;;;17.78;100.00;100050.38;4787090;29;20031;-87
2023/08/17 02:03:32;;;;;;;0.63;0.63;;;;;;;17.73;100.00;100049.03;4809407;29;20125;-87
2023/08/17 02:05:58;;;;;;;2.03;1.85;;;;;;;17.69;100.00;100049.22;4794272;29;20098;-87
2023/08/17 02:08:24;;;;;;;1.08;1.00;;;;;;;17.67;100.00;100040.50;4822506;29;21320;-88
2023/08/17 02:10:52;;;;;;;0.57;0.57;;;;;;;17.64;100.00;100035.88;4809967;29;20098;-88
2023/08/17 02:13:18;;;;;;;3.65;1.40;;;;;;;17.68;100.00;100030.84;4819152;29;20046;-87
2023/08/17 02:15:44;;;;;;;0.30;0.30;;;;;;;17.57;100.00;100019.44;4812847;29;20054;-87
2023/08/17 02:18:10;;;;;;;1.30;0.98;;;;;;;17.67;100.00;100023.69;4823798;29;20050;-87
2023/08/17 02:20:36;;;;;;;2.63;1.25;;;;;;;17.62;100.00;100023.63;4818786;29;20081;-87
2023/08/17 02:23:01;;;;;;;1.05;0.77;;;;;;;17.59;100.00;100025.34;4821246;29;20533;-87
2023/08/17 02:25:33;;;;;;;0.88;0.88;;;;;;;17.62;100.00;100037.63;4819846;29;20047;-87
2023/08/17 02:27:59;;;;;;;1.13;1.02;;;;;;;17.66;100.00;100035.41;4806215;29;20046;-87
2023/08/17 02:30:26;;;;;;;1.02;0.85;;;;;;;17.65;100.00;100026.22;4816037;29;20153;-87
2023/08/17 02:32:51;;;;;;;1.13;1.10;;;;;;;17.67;100.00;100034.16;4803399;29;20111;-88
2023/08/17 02:35:18;;;;;;;0.45;0.45;;;;;;;17.68;100.00;100033.66;4817945;29;20422;-87
2023/08/17 02:37:43;;;;;;;1.30;0.90;;;;;;;17.66;100.00;100027.00;4790722;29;20049;-87
2023/08/17 02:40:09;;;;;;;0.65;0.65;;;;;;;17.69;100.00;100031.63;4818822;29;20046;-88
2023/08/17 02:42:35;;;;;;;1.52;1.30;;;;;;;17.60;100.00;100018.47;4805417;29;20165;-87
2023/08/17 02:45:00;;;;;;;1.08;1.02;;;;;;;17.63;100.00;100020.31;4805845;29;20034;-87
2023/08/17 02:47:26;;;;;;;2.47;0.82;;;;;;;17.62;100.00;100029.22;4822672;29;20042;-87
2023/08/17 02:49:52;;;;;;;1.80;1.70;;;;;;;17.54;100.00;100023.22;4820108;29;20514;-88
2023/08/17 02:52:18;;;;;;;0.77;0.77;;;;;;;17.57;100.00;100030.66;4815112;29;20076;-87
2023/08/17 02:54:43;;;;;;;1.58;0.90;;;;;;;17.62;100.00;100040.44;4797716;29;20069;-87
2023/08/17 02:57:09;;;;;;;2.22;0.93;;;;;;;17.61;100.00;100036.84;4803618;29;20042;-87
2023/08/17 02:59:34;;;;;;;0.70;0.70;;;;;;;17.56;100.00;100029.09;4820245;29;20070;-87
2023/08/17 03:02:00;;;;;;;0.60;0.60;;;;;;;17.54;100.00;100028.81;4819828;29;20050;-87
2023/08/17 03:04:25;;;;;;;2.85;1.75;;;;;;;17.57;100.00;100041.88;4802986;29;20046;-87
2023/08/17 03:06:51;;;;;;;2.55;1.02;;;;;;;17.58;100.00;100034.25;4768527;29;20566;-88
2023/08/17 03:09:17;;;;;;;0.80;0.75;;;;;;;17.56;100.00;100029.09;4794167;29;20488;-87
2023/08/17 03:11:42;;;;;;;2.50;1.30;;;;;;;17.52;100.00;100027.75;4808119;29;20535;-87
2023/08/17 03:14:08;;;;;;;1.35;1.25;;;;;;;17.53;100.00;100038.47;4801225;29;20050;-88
2023/08/17 03:16:33;;;;;;;2.20;1.50;;;;;;;17.49;100.00;100034.31;4786473;29;20074;-87
2023/08/17 03:18:59;;;;;;;1.75;0.93;;;;;;;17.41;100.00;100041.56;4791623;29;20047;-87
2023/08/17 03:21:24;;;;;;;1.75;1.58;;;;;;;17.42;100.00;100029.09;4786811;29;20167;-87
2023/08/17 03:23:51;;;;;;;0.88;0.85;;;;;;;17.39;100.00;100047.66;4799751;29;20043;-87
2023/08/17 03:26:16;;;;;;;0.65;0.63;;;;;;;17.38;100.00;100048.94;4788714;29;20534;-87
2023/08/17 03:28:42;;;;;;;0.95;0.75;;;;;;;17.35;100.00;100043.53;4800940;29;20419;-87
2023/08/17 03:31:10;;;;;;;0.90;0.90;;;;;;;17.36;100.00;100051.44;4800373;29;20142;-87
2023/08/17 03:33:36;;;;;;;1.38;1.08;;;;;;;17.32;100.00;100034.03;4795115;29;20050;-87
2023/08/17 03:36:03;;;;;;;0.93;0.82;;;;;;;17.34;100.00;100045.56;4802723;29;20472;-87
2023/08/17 03:38:28;;;;;;;0.70;0.70;;;;;;;17.37;100.00;100035.38;4759355;29;20102;-87
2023/08/17 03:40:55;;;;;;;1.95;1.77;;;;;;;17.36;100.00;100045.03;4809462;29;20122;-87
2023/08/17 03:43:22;;;;;;;1.63;1.40;;;;;;;17.39;100.00;100047.66;4782571;29;20409;-87
2023/08/17 03:45:48;;;;;;;6.22;0.52;;;;;;;17.38;100.00;100046.13;4803627;29;20049;-87
2023/08/17 03:48:13;;;;;;;1.98;1.10;;;;;;;17.41;100.00;100050.75;4770547;29;20057;-87
2023/08/17 03:50:39;;;;;;;0.30;0.30;;;;;;;17.43;100.00;100053.84;4797606;29;20039;-87
2023/08/17 03:53:04;;;;;;;0.77;0.77;;;;;;;17.41;100.00;100056.38;4770777;29;20756;-87
2023/08/17 03:55:30;;;;;;;1.35;0.95;;;;;;;17.42;100.00;100071.94;4801023;29;20046;-87
2023/08/17 03:57:56;;;;;;;1.80;1.05;;;;;;;17.36;100.00;100067.47;4785054;29;20043;-87
2023/08/17 04:00:22;;;;;;;0.93;0.85;;;;;;;17.36;100.00;100076.66;4784029;29;20038;-87
2023/08/17 04:02:52;;;;;;;1.20;1.10;;;;;;;17.32;100.00;100086.53;4779171;29;20051;-87
2023/08/17 04:05:19;;;;;;;1.67;0.98;;;;;;;17.35;100.00;100100.34;4784052;29;20062;-87
2023/08/17 04:07:45;;;;;;;1.02;0.73;;;;;;;17.34;100.00;100092.44;4783644;29;20043;-87
2023/08/17 04:10:10;;;;;;;0.20;0.20;;;;;;;17.37;100.00;100094.28;4798600;29;20046;-88
2023/08/17 04:12:36;;;;;;;1.95;0.50;;;;;;;17.39;100.00;100091.78;4801527;29;20046;-87
2023/08/17 04:15:01;;;;;;;0.98;0.88;;;;;;;17.37;100.00;100078.22;4800772;29;20054;-87
2023/08/17 04:17:27;;;;;;;1.52;1.42;;;;;;;17.38;100.00;100073.41;4780765;29;20527;-87
2023/08/17 04:19:53;;;;;;;1.33;1.23;;;;;;;17.43;100.00;100073.47;4793999;29;20476;-86
2023/08/17 04:22:18;;;;;;;4.60;1.88;;;;;;;17.40;100.00;100063.22;4793863;29;20047;-87
2023/08/17 04:24:44;;;;;;;1.10;0.93;;;;;;;17.45;100.00;100068.16;4788710;29;20064;-88
2023/08/17 04:27:12;;;;;;;1.77;1.67;;;;;;;17.43;100.00;100065.06;4798234;29;20039;-87
2023/08/17 04:29:51;;;;;;;1.63;1.52;;;;;;;17.39;100.00;100072.88;4770183;29;20049;-87
2023/08/17 04:32:18;;;;;;;2.03;1.20;;;;;;;17.31;100.00;100057.72;4779106;29;20137;-87
2023/08/17 04:34:45;;;;;;;0.63;0.63;;;;;;;17.30;100.00;100053.38;4797288;29;20046;-87
2023/08/17 04:37:10;;;;;;;1.85;1.42;;;;;;;17.38;100.00;100056.56;4797963;29;20580;-88
2023/08/17 04:39:36;;;;;;;0.47;0.47;;;;;;;17.38;100.00;100065.75;4785662;29;20043;-87
2023/08/17 04:42:08;;;;;;;0.93;0.60;;;;;;;17.42;100.00;100077.56;4798916;29;20141;-87
2023/08/17 04:44:34;;;;;;;0.98;0.88;;;;;;;17.47;100.00;100076.84;4805577;29;20466;-87
2023/08/17 04:47:00;;;;;;;1.15;1.08;;;;;;;17.44;100.00;100060.22;4797491;29;20043;-86
2023/08/17 04:49:26;;;;;;;1.42;1.33;;;;;;;17.38;100.00;100046.13;4808919;29;20148;-86
2023/08/17 04:51:52;;;;;;;1.58;1.48;;;;;;;17.45;100.00;100058.97;4800254;29;20225;-87
2023/08/17 04:54:28;;;;;;;1.65;0.95;;;;;;;17.56;100.00;100065.53;4771976;29;20068;-86
2023/08/17 04:57:18;;;;;;;2.10;1.70;;;;;;;17.71;100.00;100074.00;4768857;29;20078;-87
2023/08/17 04:59:45;;;;;;;0.73;0.73;;;;;;;17.78;100.00;100073.59;4782076;29;20043;-87
2023/08/17 05:02:11;;;;;;;0.80;0.80;;;;;;;17.85;100.00;100076.00;4779402;29;20534;-87
2023/08/17 05:04:39;;;;;;;0.77;0.77;;;;;;;17.98;100.00;100075.69;4822327;29;20046;-87
2023/08/17 05:07:05;;;;;;;1.85;0.77;;;;;;;18.18;100.00;100072.94;4823192;29;20054;-86
2023/08/17 05:09:32;;;;;;;1.63;1.25;;;;;;;18.35;100.00;100070.38;4803173;29;20088;-87
2023/08/17 05:11:58;;;;;;;1.15;1.08;;;;;;;18.45;100.00;100069.75;4788505;29;20272;-87
2023/08/17 05:14:23;;;;;;;0.65;0.63;;;;;;;18.57;100.00;100065.84;4802334;29;20127;-87
2023/08/17 05:16:49;;;;;;;0.90;0.90;;;;;;;18.79;100.00;100073.00;4820888;29;20435;-86
2023/08/17 05:19:14;;;;;;;1.05;1.05;;;;;;;18.79;100.00;100056.94;4820560;29;20150;-87
2023/08/17 05:21:40;;;;;;;1.48;1.38;;;;;;;18.95;100.00;100069.63;4831588;29;20122;-88
2023/08/17 05:24:07;;;;;;;2.17;1.50;;;;;;;19.06;100.00;100064.88;4821038;29;20237;-86
2023/08/17 05:26:33;;;;;;;1.75;0.70;;;;;;;19.16;100.00;100059.88;4833593;29;20039;-86
2023/08/17 05:28:59;;;;;;;2.28;0.95;;;;;;;19.37;100.00;100080.31;4817621;29;20613;-86
2023/08/17 05:31:25;;;;;;;0.70;0.57;;;;;;;19.51;100.00;100080.22;4831755;29;20046;-87
2023/08/17 05:33:52;;;;;;;1.73;0.95;;;;;;;19.71;100.00;100075.75;4816649;29;20038;-86
2023/08/17 05:36:19;;;;;;;0.68;0.68;;;;;;;19.89;100.00;100064.16;4834786;29;20046;-85
2023/08/17 05:38:46;;;;;;;1.23;1.13;;;;;;;20.14;100.00;100076.63;4817273;29;20304;-86
2023/08/17 05:41:12;;;;;;;2.05;1.00;;;;;;;20.25;100.00;100080.28;4832242;29;20151;-86
2023/08/17 05:43:38;;;;;;;1.10;1.00;;;;;;;20.34;100.00;100085.72;4826945;29;20137;-87
2023/08/17 05:46:03;;;;;;;1.67;1.40;;;;;;;20.43;100.00;100079.09;4831546;29;20045;-87
2023/08/17 05:48:29;;;;;;;0.88;0.88;;;;;;;20.57;100.00;100074.56;4802738;29;20046;-87
2023/08/17 05:50:56;;;;;;;5.55;2.03;;;;;;;20.78;100.00;100084.41;4830963;29;20134;-87
2023/08/17 05:53:22;;;;;;;0.68;0.68;;;;;;;20.97;100.00;100085.50;4829614;29;20513;-87
2023/08/17 05:55:47;;;;;;;1.42;0.95;;;;;;;21.20;100.00;100083.53;4818235;29;20074;-87
2023/08/17 05:58:13;;;;;;;0.93;0.93;;;;;;;21.43;100.00;100092.84;4819262;29;20047;-87
2023/08/17 06:00:38;;;;;;;0.52;0.52;;;;;;;21.56;100.00;100090.28;4819012;29;20519;-87
2023/08/17 06:03:04;;;;;;;1.35;1.00;;;;;;;21.75;100.00;100094.94;4816957;29;20047;-87
2023/08/17 06:05:30;;;;;;;1.02;0.90;;;;;;;22.01;100.00;100096.72;4788088;29;20577;-86
2023/08/17 06:07:56;;;;;;;1.30;0.90;;;;;;;22.09;100.00;100089.28;4802255;29;20145;-86
2023/08/17 06:10:25;;;;;;;0.85;0.60;;;;;;;22.23;100.00;100093.88;4787610;29;20059;-87
2023/08/17 06:12:56;;;;;;;2.15;0.85;;;;;;;22.48;100.00;100097.69;4801459;29;20043;-86
2023/08/17 06:15:23;;;;;;;2.58;1.98;;;;;;;22.65;100.00;100093.50;4804730;29;20089;-87
2023/08/17 06:17:51;;;;;;;2.28;1.33;;;;;;;22.75;100.00;100086.31;4785834;29;20126;-86
2023/08/17 06:20:17;;;;;;;2.92;1.42;;;;;;;22.86;100.00;100099.63;4785834;29;20061;-86
2023/08/17 06:22:43;;;;;;;3.55;1.63;;;;;;;23.07;100.00;100109.31;4802306;29;20427;-87
2023/08/17 06:25:09;;;;;;;1.10;1.05;;;;;;;23.19;100.00;100104.38;4800812;29;20047;-86
2023/08/17 06:27:35;;;;;;;0.63;0.63;;;;;;;23.18;100.00;100114.91;4802296;29;20055;-86
2023/08/17 06:30:04;;;;;;;0.80;0.80;;;;;;;23.38;100.00;100110.16;4801898;29;20130;-86
2023/08/17 06:32:31;;;;;;;1.30;1.20;;;;;;;23.61;100.00;100108.78;4801086;29;20047;-86
2023/08/17 06:34:57;;;;;;;1.50;1.38;;;;;;;23.74;100.00;100097.59;4808087;29;20196;-86
2023/08/17 06:37:23;;;;;;;1.90;1.23;;;;;;;23.83;100.00;100091.59;4808919;29;20111;-86
2023/08/17 06:39:48;;;;;;;1.63;1.33;;;;;;;24.04;100.00;100092.72;4789735;29;20051;-86
2023/08/17 06:42:14;;;;;;;0.95;0.93;;;;;;;24.33;100.00;100107.41;4789083;29;20046;-86
2023/08/17 06:44:39;;;;;;;0.82;0.75;;;;;;;24.45;100.00;100098.25;4786980;29;20049;-86
2023/08/17 06:47:05;;;;;;;2.00;1.30;;;;;;;24.61;100.00;100105.03;4801959;29;20099;-86
2023/08/17 06:49:31;;;;;;;2.35;1.23;;;;;;;24.72;100.00;100099.25;4800541;29;20077;-86
2023/08/17 06:51:56;;;;;;;1.23;1.08;;;;;;;24.74;100.00;100096.66;4785598;29;20047;-86
2023/08/17 06:54:22;;;;;;;0.95;0.90;;;;;;;24.87;100.00;100099.59;4800204;29;20047;-86
2023/08/17 06:56:47;;;;;;;1.27;1.17;;;;;;;25.17;100.00;100093.03;4801470;29;20050;-86
2023/08/17 06:59:13;;;;;;;1.15;1.08;;;;;;;25.32;100.00;100099.00;4800378;29;20435;-86
2023/08/17 07:01:38;;;;;;;1.75;1.00;;;;;;;25.42;100.00;100103.75;4803725;29;20034;-86
2023/08/17 07:04:04;;;;;;;1.08;0.98;;;;;;;25.25;100.00;100105.28;4821840;29;20113;-86
2023/08/17 07:06:29;;;;;;;1.10;0.85;;;;;;;25.25;100.00;100099.63;4820404;29;20042;-86
2023/08/17 07:08:56;;;;;;;1.30;0.93;;;;;;;25.40;100.00;100112.03;4818844;29;20570;-86
2023/08/17 07:11:22;;;;;;;0.95;0.95;;;;;;;25.47;100.00;100094.41;4803651;29;20050;-86
2023/08/17 07:13:48;;;;;;;1.30;1.20;;;;;;;25.65;100.00;100104.22;4806694;29;20510;-86
2023/08/17 07:16:13;;;;;;;2.97;0.95;;;;;;;25.79;100.00;100096.50;4803970;29;20053;-86
2023/08/17 07:18:39;;;;;;;1.63;1.25;;;;;;;26.07;100.00;100102.50;4823720;29;20051;-86
2023/08/17 07:21:05;;;;;;;0.85;0.75;;;;;;;26.25;100.00;100109.44;4806566;29;20041;-86
2023/08/17 07:23:31;;;;;;;1.33;0.93;;;;;;;26.11;100.00;100100.09;4829196;29;20050;-86
2023/08/17 07:25:56;;;;;;;1.92;1.50;;;;;;;26.22;100.00;100107.69;4821401;29;20042;-89
2023/08/17 07:28:22;;;;;;;1.40;1.27;;;;;;;26.02;100.00;100111.88;4820104;29;20051;-86
2023/08/17 07:30:47;;;;;;;0.63;0.60;;;;;;;26.08;100.00;100094.75;4806398;29;20046;-86
2023/08/17 07:33:13;;;;;;;3.17;0.90;;;;;;;26.32;100.00;100103.13;4818912;29;20049;-87
2023/08/17 07:35:38;;;;;;;1.35;1.00;;;;;;;26.63;100.00;100102.25;4805638;29;20045;-88
2023/08/17 07:38:04;;;;;;;2.20;1.75;;;;;;;26.71;100.00;100111.66;4819361;29;20057;-88
2023/08/17 07:40:29;;;;;;;1.20;1.10;;;;;;;26.76;99.99;100110.03;4802513;29;20042;-88
2023/08/17 07:42:55;;;;;;;2.45;1.02;;;;;;;26.98;99.23;100106.72;4820008;29;20065;-88
2023/08/17 07:45:20;;;;;;;0.90;0.70;;;;;;;27.12;97.29;100118.88;4827420;29;20042;-88
2023/08/17 07:47:46;;;;;;;0.88;0.88;;;;;;;27.11;95.60;100108.78;4819498;29;20054;-88
2023/08/17 07:50:11;;;;;;;1.17;0.90;;;;;;;27.06;94.66;100101.91;4804079;29;20042;-88
2023/08/17 07:52:37;;;;;;;2.30;1.30;;;;;;;26.71;98.60;100116.59;4817057;29;20073;-88
2023/08/17 07:55:03;;;;;;;1.42;1.17;;;;;;;27.07;100.00;100111.22;4802741;29;20050;-88
2023/08/17 07:57:28;;;;;;;2.70;1.40;;;;;;;27.52;97.25;100108.94;4803212;29;20043;-88
2023/08/17 07:59:54;;;;;;;1.05;0.98;;;;;;;27.54;93.45;100114.84;4819305;29;20050;-87
2023/08/17 08:02:20;;;;;;;1.10;1.10;;;;;;;27.23;93.85;100110.84;4817789;29;20757;-88
2023/08/17 08:04:45;;;;;;;0.47;0.45;;;;;;;27.41;94.72;100114.09;4800354;29;20119;-88
2023/08/17 08:07:11;;;;;;;1.88;1.63;;;;;;;27.53;93.84;100107.63;4840786;29;20057;-87
2023/08/17 08:09:36;;;;;;;1.48;0.88;;;;;;;27.77;92.81;100112.22;4849291;29;20046;-88
2023/08/17 08:12:02;;;;;;;0.70;0.70;;;;;;;27.88;90.81;100105.47;4835872;29;20437;-88
2023/08/17 08:14:29;;;;;;;2.05;0.95;;;;;;;27.36;92.36;100107.22;4817492;29;20045;-88
2023/08/17 08:16:54;;;;;;;1.73;1.25;;;;;;;27.38;95.54;100104.56;4814170;29;20091;-88
2023/08/17 08:19:20;;;;;;;1.17;1.02;;;;;;;27.79;92.76;100110.34;4830685;29;20426;-88
2023/08/17 08:21:45;;;;;;;1.52;1.42;;;;;;;28.04;87.75;100101.44;4814245;29;20134;-88
2023/08/17 08:24:11;;;;;;;0.90;0.73;;;;;;;28.31;87.28;100096.38;4815444;29;20468;-88
2023/08/17 08:26:37;;;;;;;0.82;0.80;;;;;;;28.64;81.27;100101.91;4813472;29;20483;-88
2023/08/17 08:29:05;;;;;;;0.73;0.73;;;;;;;28.81;81.34;100100.72;4817695;29;20527;-88
2023/08/17 08:31:30;;;;;;;1.35;1.00;;;;;;;28.55;81.03;100099.56;4814741;29;20096;-88
2023/08/17 08:33:55;;;;;;;3.15;1.85;;;;;;;28.70;81.58;100099.72;4817015;29;20078;-88
2023/08/17 08:36:21;;;;;;;1.00;0.93;;;;;;;28.93;81.88;100099.06;4815996;29;20058;-88
2023/08/17 08:38:47;;;;;;;1.52;1.35;;;;;;;28.92;76.78;100086.88;4832744;29;20050;-86
2023/08/17 08:41:12;;;;;;;1.35;1.15;;;;;;;28.65;77.91;100083.47;4819087;29;20547;-86
2023/08/17 08:43:38;;;;;;;1.00;0.90;;;;;;;28.29;82.82;100088.38;4817158;29;20046;-86
2023/08/17 08:46:04;;;;;;;0.77;0.77;;;;;;;28.35;83.90;100080.41;4832747;29;20518;-86
2023/08/17 08:48:31;;;;;;;1.75;1.42;;;;;;;28.77;81.18;100086.81;4817859;29;20054;-87
2023/08/17 08:51:00;;;;;;;1.23;0.95;;;;;;;29.20;79.29;100088.88;4820964;29;20070;-86
2023/08/17 08:53:39;;;;;;;0.82;0.82;;;;;;;29.29;74.37;100085.53;4823142;29;20053;-88
2023/08/17 08:56:07;;;;;;;1.95;1.63;;;;;;;29.92;73.04;100088.72;4805741;29;20493;-88
2023/08/17 08:58:33;;;;;;;0.80;0.70;;;;;;;30.38;69.18;100093.09;4835426;29;20058;-87
2023/08/17 09:01:00;;;;;;;1.30;1.13;;;;;;;30.25;64.83;100087.56;4818812;29;20046;-88
2023/08/17 09:03:26;;;;;;;1.33;1.15;;;;;;;30.16;66.46;100093.88;4822024;29;20148;-88
2023/08/17 09:05:51;;;;;;;0.95;0.73;;;;;;;29.58;67.42;100077.59;4809527;29;20144;-88
2023/08/17 09:08:27;;;;;;;1.08;1.00;;;;;;;29.29;71.73;100090.47;4832607;29;20089;-88
2023/08/17 09:10:52;;;;;;;1.63;0.93;;;;;;;28.52;71.30;100086.44;4819909;29;20430;-87
2023/08/17 09:13:18;;;;;;;1.02;0.95;;;;;;;28.58;73.63;100086.28;4828368;29;20050;-88
2023/08/17 09:15:44;;;;;;;0.60;0.60;;;;;;;28.76;74.55;100081.66;4834041;29;20062;-87
2023/08/17 09:18:10;;;;;;;1.23;1.13;;;;;;;28.27;69.32;100091.78;4831877;29;20068;-88
2023/08/17 09:20:35;;;;;;;1.30;1.20;;;;;;;28.51;69.56;100089.88;4844729;29;20053;-87
2023/08/17 09:23:03;;;;;;;0.70;0.70;;;;;;;28.74;66.60;100073.66;4834319;29;20391;-87
2023/08/17 09:25:30;;;;;;;1.88;1.10;;;;;;;28.60;66.75;100077.91;4833627;29;20050;-88
2023/08/17 09:27:57;;;;;;;4.55;1.30;;;;;;;28.49;64.99;100084.72;4819526;29;20149;-88
2023/08/17 09:30:22;;;;;;;0.52;0.52;;;;;;;28.72;68.79;100077.06;4817461;29;20050;-87
2023/08/17 09:32:49;;;;;;;0.80;0.70;;;;;;;28.73;63.93;100074.97;4819897;29;20464;-88
2023/08/17 09:35:15;;;;;;;0.77;0.65;;;;;;;28.48;63.88;100080.31;4819185;29;20580;-88
2023/08/17 09:37:40;;;;;;;1.35;1.17;;;;;;;28.29;64.90;100065.56;4814786;29;20050;-87
2023/08/17 09:40:06;;;;;;;1.38;0.57;;;;;;;28.50;64.95;100056.94;4813787;29;20078;-88
2023/08/17 09:42:35;;;;;;;0.77;0.70;;;;;;;29.07;67.70;100064.09;4818654;29;20089;-87
2023/08/17 09:45:01;;;;;;;0.68;0.68;;;;;;;29.56;62.94;100072.44;4834374;29;20043;-87
2023/08/17 09:47:26;;;;;;;0.68;0.65;;;;;;;29.38;61.77;100070.69;4817433;29;20410;-88
2023/08/17 09:49:53;;;;;;;0.80;0.80;;;;;;;29.42;63.97;100056.81;4802581;29;20475;-87
2023/08/17 09:52:22;;;;;;;1.38;0.77;;;;;;;29.88;61.31;100065.47;4818439;29;20054;-88
2023/08/17 09:54:48;;;;;;;1.10;0.73;;;;;;;30.12;58.60;100067.75;4820310;29;20440;-88
2023/08/17 09:57:14;;;;;;;1.80;1.30;;;;;;;30.08;58.21;100064.50;4820490;29;20099;-88
2023/08/17 09:59:40;;;;;;;1.48;1.33;;;;;;;30.36;57.55;100067.16;4829526;29;20052;-88
2023/08/17 10:02:17;;;;;;;13.93;1.20;;;;;;;30.40;54.72;100064.66;4829056;29;20088;-87
2023/08/17 10:04:43;;;;;;;0.73;0.73;;;;;;;29.94;55.33;100060.31;4831607;29;20045;-88
2023/08/17 10:07:09;;;;;;;0.95;0.95;;;;;;;29.86;56.08;100076.66;4822903;29;20501;-88
2023/08/17 10:09:40;;;;;;;0.98;0.88;;;;;;;29.83;56.87;100063.53;4817034;29;20046;-88
2023/08/17 10:12:11;;;;;;;1.08;0.75;;;;;;;29.39;58.46;100063.66;4848481;29;20518;-87
2023/08/17 10:14:41;;;;;;;1.48;1.08;;;;;;;29.54;61.65;100055.09;4841212;29;20554;-88
2023/08/17 10:17:13;;;;;;;2.90;1.58;;;;;;;29.73;57.87;100053.97;4819661;29;20061;-88
2023/08/17 10:19:51;;;;;;;0.35;0.35;;;;;;;29.41;59.88;100058.13;4816593;29;20069;-87
2023/08/17 10:22:33;;;;;;;1.08;1.02;;;;;;;29.62;60.22;100050.16;4817756;29;20057;-87
2023/08/17 10:25:00;;;;;;;0.90;0.90;;;;;;;29.64;60.16;100023.88;4833028;29;20090;-88
2023/08/17 10:27:26;;;;;;;0.40;0.40;;;;;;;30.01;56.42;100053.81;4802597;29;20322;-88
2023/08/17 10:29:52;;;;;;;1.17;1.08;;;;;;;30.32;55.98;100052.47;4833515;29;20423;-88
2023/08/17 10:32:20;;;;;;;1.30;1.20;;;;;;;30.51;54.09;100041.38;4818221;29;20114;-87
2023/08/17 10:34:46;;;;;;;1.85;0.75;;;;;;;30.17;52.70;100046.75;4832540;29;20153;-87
2023/08/17 10:37:12;;;;;;;0.90;0.80;;;;;;;29.93;54.99;100038.75;4831837;29;20041;-88
2023/08/17 10:39:45;;;;;;;1.35;1.25;;;;;;;30.10;53.64;100042.56;4816941;29;20195;-88
2023/08/17 10:42:10;;;;;;;0.93;0.73;;;;;;;30.13;52.92;100046.38;4827435;29;20489;-88
2023/08/17 10:44:41;;;;;;;0.80;0.75;;;;;;;29.92;51.89;100048.69;4816015;29;20129;-88
2023/08/17 10:47:21;;;;;;;1.63;1.30;;;;;;;30.10;54.26;100047.53;4816348;29;20077;-88
2023/08/17 10:49:50;;;;;;;0.98;0.98;;;;;;;30.41;52.60;100040.41;4829551;29;20054;-88
2023/08/17 10:52:25;;;;;;;1.73;1.35;;;;;;;30.71;51.96;100028.16;4846405;29;20111;-89
2023/08/17 10:54:51;;;;;;;0.40;0.40;;;;;;;30.61;49.65;100027.25;4838209;29;20054;-89
2023/08/17 10:57:33;;;;;;;2.15;1.02;;;;;;;30.42;52.64;100039.09;4829729;29;20111;-89
2023/08/17 11:00:10;;;;;;;;;;;;;;;30.64;52.51;100042.50;4833157;29;20054;-88
2023/08/17 11:02:37;;;;;;;0.90;0.90;;;;;;;30.53;50.51;100049.41;4818250;29;19956;-89
2023/08/17 11:05:04;;;;;;;0.90;0.85;;;;;;;30.41;51.30;100042.53;4817392;29;20107;-88
2023/08/17 11:07:44;;;;;;;0.57;0.57;;;;;;;30.58;53.27;100039.06;4804426;29;20126;-88
2023/08/17 11:10:19;;;;;;;1.05;0.95;;;;;;;30.33;51.99;100036.81;4832836;29;20058;-88
2023/08/17 11:12:44;;;;;;;2.25;1.70;;;;;;;30.18;52.63;100033.22;4825989;29;20042;-88
2023/08/17 11:15:10;;;;;;;1.35;1.13;;;;;;;29.27;55.49;100036.75;4829350;29;20062;-88
2023/08/17 11:17:36;;;;;;;1.65;1.55;;;;;;;28.67;59.41;100043.72;4838957;29;20579;-88
2023/08/17 11:20:02;;;;;;;1.00;0.95;;;;;;;28.84;59.57;100040.38;4802072;29;20491;-89